createdAt,value
2022-10-22T00:00:43.591Z,1015.44
2022-10-22T00:01:44.481Z,1015.42
2022-10-22T00:02:45.487Z,1015.40
2022-10-22T00:03:46.340Z,1015.44
2022-10-22T00:04:47.237Z,1015.46
2022-10-22T00:05:48.165Z,1015.52
2022-10-22T00:06:49.039Z,1015.56
2022-10-22T00:07:49.920Z,1015.55
2022-10-22T00:08:50.918Z,1015.55
2022-10-22T00:09:51.785Z,1015.55
2022-10-22T00:10:52.693Z,1015.52
2022-10-22T00:11:53.569Z,1015.49
2022-10-22T00:12:54.443Z,1015.46
2022-10-22T00:13:54.936Z,1015.48
2022-10-22T00:14:55.811Z,1015.48
2022-10-22T00:15:56.704Z,1015.50
2022-10-22T00:16:57.594Z,1015.50
2022-10-22T00:17:58.491Z,1015.53
2022-10-22T00:18:59.356Z,1015.54
2022-10-22T00:20:00.229Z,1015.50
2022-10-22T00:21:01.120Z,1015.50
2022-10-22T00:22:02.998Z,1015.48
2022-10-22T00:23:02.836Z,1015.49
2022-10-22T00:24:03.707Z,1015.47
2022-10-22T00:25:04.596Z,1015.47
2022-10-22T00:26:05.482Z,1015.48
2022-10-22T00:27:06.372Z,1015.47
2022-10-22T00:28:07.255Z,1015.50
2022-10-22T00:29:08.132Z,1015.52
2022-10-22T00:30:08.868Z,1015.56
2022-10-22T00:31:09.759Z,1015.62
2022-10-22T00:32:10.637Z,1015.67
2022-10-22T00:33:11.538Z,1015.69
2022-10-22T00:34:12.398Z,1015.73
2022-10-22T00:35:13.281Z,1015.73
2022-10-22T00:36:14.167Z,1015.73
2022-10-22T00:37:15.047Z,1015.72
2022-10-22T00:38:15.921Z,1015.74
2022-10-22T00:39:16.812Z,1015.74
2022-10-22T00:40:17.689Z,1015.74
2022-10-22T00:41:18.580Z,1015.74
2022-10-22T00:42:19.453Z,1015.73
2022-10-22T00:43:20.335Z,1015.73
2022-10-22T00:44:21.218Z,1015.75
2022-10-22T00:45:22.105Z,1015.78
2022-10-22T00:46:22.993Z,1015.77
2022-10-22T00:47:23.875Z,1015.73
2022-10-22T00:48:24.769Z,1015.70
2022-10-22T00:49:25.631Z,1015.64
2022-10-22T00:50:26.514Z,1015.61
2022-10-22T00:51:27.406Z,1015.66
2022-10-22T00:52:28.282Z,1015.69
2022-10-22T00:53:29.164Z,1015.70
2022-10-22T00:54:30.046Z,1015.71
2022-10-22T00:55:30.954Z,1015.71
2022-10-22T00:56:31.828Z,1015.72
2022-10-22T00:57:32.717Z,1015.75
2022-10-22T00:58:33.595Z,1015.78
2022-10-22T00:59:34.477Z,1015.79
2022-10-22T01:00:35.402Z,1015.79
2022-10-22T01:01:36.252Z,1015.79
2022-10-22T01:02:37.153Z,1015.78
2022-10-22T01:03:37.739Z,1015.74
2022-10-22T01:04:38.601Z,1015.71
2022-10-22T01:05:39.492Z,1015.67
2022-10-22T01:06:40.378Z,1015.66
2022-10-22T01:07:41.248Z,1015.66
2022-10-22T01:08:42.170Z,1015.66
2022-10-22T01:09:43.027Z,1015.62
2022-10-22T01:10:43.914Z,1015.60
2022-10-22T01:11:44.795Z,1015.56
2022-10-22T01:12:45.679Z,1015.49
2022-10-22T01:13:46.560Z,1015.45
2022-10-22T01:14:47.433Z,1015.44
2022-10-22T01:15:48.338Z,1015.44
2022-10-22T01:16:49.209Z,1015.45
2022-10-22T01:17:50.091Z,1015.50
2022-10-22T01:18:50.986Z,1015.52
2022-10-22T01:19:51.848Z,1015.56
2022-10-22T01:20:52.741Z,1015.58
2022-10-22T01:21:53.633Z,1015.59
2022-10-22T01:22:54.509Z,1015.55
2022-10-22T01:23:55.461Z,1015.57
2022-10-22T01:24:56.335Z,1015.58
2022-10-22T01:25:57.226Z,1015.59
2022-10-22T01:26:58.110Z,1015.63
2022-10-22T01:27:59.002Z,1015.68
2022-10-22T01:28:59.876Z,1015.73
2022-10-22T01:30:00.759Z,1015.74
2022-10-22T01:31:01.652Z,1015.77
2022-10-22T01:32:02.536Z,1015.81
2022-10-22T01:33:03.419Z,1015.87
2022-10-22T01:34:04.326Z,1015.92
2022-10-22T01:35:05.186Z,1016.00
2022-10-22T01:36:06.079Z,1016.05
2022-10-22T01:37:06.962Z,1016.10
2022-10-22T01:38:07.844Z,1016.07
2022-10-22T01:39:08.717Z,1016.03
2022-10-22T01:40:09.608Z,1016.01
2022-10-22T01:41:10.492Z,1015.99
2022-10-22T01:42:11.375Z,1015.98
2022-10-22T01:43:12.249Z,1015.97
2022-10-22T01:44:13.131Z,1015.93
2022-10-22T01:45:14.007Z,1015.92
2022-10-22T01:46:14.906Z,1015.91
2022-10-22T01:47:15.781Z,1015.91
2022-10-22T01:48:16.662Z,1015.91
2022-10-22T01:49:17.573Z,1015.91
2022-10-22T01:50:18.427Z,1015.90
2022-10-22T01:51:19.319Z,1015.90
2022-10-22T01:52:20.214Z,1015.94
2022-10-22T01:53:21.085Z,1015.91
2022-10-22T01:54:21.968Z,1015.89
2022-10-22T01:55:22.839Z,1015.92
2022-10-22T01:56:23.732Z,1015.94
2022-10-22T01:57:24.607Z,1015.96
2022-10-22T01:58:25.493Z,1015.97
2022-10-22T01:59:26.372Z,1016.00
2022-10-22T02:00:27.307Z,1016.00
2022-10-22T02:01:28.176Z,1015.98
2022-10-22T02:02:29.058Z,1015.98
2022-10-22T02:03:29.933Z,1016.00
2022-10-22T02:04:30.840Z,1016.03
2022-10-22T02:05:31.699Z,1016.07
2022-10-22T02:06:32.591Z,1016.13
2022-10-22T02:07:33.474Z,1016.21
2022-10-22T02:08:34.390Z,1016.29
2022-10-22T02:09:35.239Z,1016.28
2022-10-22T02:10:36.132Z,1016.33
2022-10-22T02:11:37.017Z,1016.35
2022-10-22T02:12:38.020Z,1016.40
2022-10-22T02:13:38.513Z,1016.44
2022-10-22T02:14:39.396Z,1016.50
2022-10-22T02:15:40.279Z,1016.56
2022-10-22T02:16:41.193Z,1016.60
2022-10-22T02:17:42.064Z,1016.65
2022-10-22T02:18:42.939Z,1016.67
2022-10-22T02:19:43.833Z,1016.70
2022-10-22T02:20:44.697Z,1016.71
2022-10-22T02:21:45.588Z,1016.73
2022-10-22T02:22:46.481Z,1016.75
2022-10-22T02:23:47.358Z,1016.78
2022-10-22T02:24:48.238Z,1016.77
2022-10-22T02:25:49.122Z,1016.77
2022-10-22T02:26:50.015Z,1016.81
2022-10-22T02:27:50.913Z,1016.83
2022-10-22T02:28:51.790Z,1016.89
2022-10-22T02:29:52.703Z,1016.91
2022-10-22T02:30:53.581Z,1016.95
2022-10-22T02:31:54.510Z,1016.97
2022-10-22T02:32:55.389Z,1017.00
2022-10-22T02:33:56.252Z,1016.99
2022-10-22T02:34:57.158Z,1016.96
2022-10-22T02:35:58.027Z,1016.96
2022-10-22T02:36:58.901Z,1017.00
2022-10-22T02:37:59.829Z,1017.02
2022-10-22T02:39:00.668Z,1017.03
2022-10-22T02:40:01.551Z,1017.01
2022-10-22T02:41:02.447Z,1016.99
2022-10-22T02:42:03.326Z,1016.98
2022-10-22T02:43:04.207Z,1016.97
2022-10-22T02:44:05.099Z,1016.93
2022-10-22T02:45:05.970Z,1016.95
2022-10-22T02:46:06.838Z,1016.99
2022-10-22T02:47:07.723Z,1017.04
2022-10-22T02:48:08.702Z,1017.04
2022-10-22T02:49:09.504Z,1017.06
2022-10-22T02:50:10.600Z,1017.07
2022-10-22T02:51:11.014Z,1017.09
2022-10-22T02:52:11.902Z,1017.11
2022-10-22T02:53:12.781Z,1017.17
2022-10-22T02:54:13.664Z,1017.17
2022-10-22T02:55:14.548Z,1017.20
2022-10-22T02:56:15.439Z,1017.23
2022-10-22T02:57:16.421Z,1017.25
2022-10-22T02:58:17.298Z,1017.24
2022-10-22T02:59:18.173Z,1017.23
2022-10-22T03:00:19.070Z,1017.23
2022-10-22T03:01:20.017Z,1017.24
2022-10-22T03:02:20.894Z,1017.24
2022-10-22T03:03:21.812Z,1017.23
2022-10-22T03:04:22.673Z,1017.24
2022-10-22T03:05:23.589Z,1017.26
2022-10-22T03:07:25.302Z,1017.24
2022-10-22T03:08:26.176Z,1017.25
2022-10-22T03:09:27.064Z,1017.26
2022-10-22T03:10:27.952Z,1017.27
2022-10-22T03:11:28.833Z,1017.27
2022-10-22T03:12:29.707Z,1017.26
2022-10-22T03:13:30.589Z,1017.27
2022-10-22T03:14:31.476Z,1017.31
2022-10-22T03:15:32.377Z,1017.33
2022-10-22T03:16:33.254Z,1017.33
2022-10-22T03:17:34.134Z,1017.33
2022-10-22T03:18:35.011Z,1017.35
2022-10-22T03:19:35.890Z,1017.37
2022-10-22T03:20:36.802Z,1017.36
2022-10-22T03:21:37.677Z,1017.37
2022-10-22T03:22:38.548Z,1017.39
2022-10-22T03:23:39.430Z,1017.39
2022-10-22T03:24:40.304Z,1017.41
2022-10-22T03:25:41.196Z,1017.45
2022-10-22T03:26:42.070Z,1017.47
2022-10-22T03:27:43.289Z,1017.46
2022-10-22T03:28:43.758Z,1017.46
2022-10-22T03:29:44.639Z,1017.50
2022-10-22T03:30:45.530Z,1017.51
2022-10-22T03:31:46.414Z,1017.55
2022-10-22T03:32:47.288Z,1017.61
2022-10-22T03:33:48.178Z,1017.63
2022-10-22T03:34:49.082Z,1017.66
2022-10-22T03:35:49.965Z,1017.65
2022-10-22T03:36:50.828Z,1017.63
2022-10-22T03:37:51.709Z,1017.62
2022-10-22T03:38:52.596Z,1017.61
2022-10-22T03:39:53.485Z,1017.60
2022-10-22T03:40:54.370Z,1017.59
2022-10-22T03:41:55.254Z,1017.63
2022-10-22T03:42:56.135Z,1017.63
2022-10-22T03:43:57.017Z,1017.64
2022-10-22T03:44:57.891Z,1017.67
2022-10-22T03:45:58.808Z,1017.70
2022-10-22T03:47:02.478Z,1017.74
2022-10-22T03:48:00.237Z,1017.76
2022-10-22T03:49:01.119Z,1017.75
2022-10-22T03:50:02.031Z,1017.78
2022-10-22T03:51:02.922Z,1017.80
2022-10-22T03:52:03.787Z,1017.81
2022-10-22T03:53:04.663Z,1017.85
2022-10-22T03:54:05.547Z,1017.86
2022-10-22T03:55:06.453Z,1017.86
2022-10-22T03:56:07.334Z,1017.88
2022-10-22T03:57:08.221Z,1017.87
2022-10-22T03:58:09.111Z,1017.85
2022-10-22T03:59:09.984Z,1017.83
2022-10-22T04:00:10.877Z,1017.83
2022-10-22T04:01:11.848Z,1017.83
2022-10-22T04:02:12.695Z,1017.81
2022-10-22T04:03:13.568Z,1017.83
2022-10-22T04:04:14.461Z,1017.85
2022-10-22T04:05:15.347Z,1017.93
2022-10-22T04:06:16.247Z,1017.93
2022-10-22T04:07:17.111Z,1017.95
2022-10-22T04:08:17.993Z,1017.98
2022-10-22T04:09:18.906Z,1018.00
2022-10-22T04:10:19.771Z,1017.99
2022-10-22T04:11:20.649Z,1018.01
2022-10-22T04:12:21.527Z,1018.04
2022-10-22T04:13:22.405Z,1018.05
2022-10-22T04:14:23.281Z,1018.04
2022-10-22T04:15:24.164Z,1018.05
2022-10-22T04:16:27.476Z,1018.03
2022-10-22T04:17:25.776Z,1018.02
2022-10-22T04:18:26.654Z,1018.06
2022-10-22T04:19:27.624Z,1018.09
2022-10-22T04:20:28.455Z,1018.10
2022-10-22T04:21:29.358Z,1018.12
2022-10-22T04:22:30.223Z,1018.16
2022-10-22T04:23:31.101Z,1018.15
2022-10-22T04:24:31.985Z,1018.15
2022-10-22T04:25:32.880Z,1018.18
2022-10-22T04:26:33.757Z,1018.13
2022-10-22T04:27:34.651Z,1018.11
2022-10-22T04:28:35.537Z,1018.09
2022-10-22T04:29:36.406Z,1018.06
2022-10-22T04:30:37.298Z,1018.07
2022-10-22T04:31:38.183Z,1018.03
2022-10-22T04:32:39.064Z,1017.99
2022-10-22T04:33:39.950Z,1017.97
2022-10-22T04:34:40.845Z,1017.95
2022-10-22T04:35:41.722Z,1017.91
2022-10-22T04:36:42.615Z,1017.90
2022-10-22T04:37:43.532Z,1017.90
2022-10-22T04:38:44.362Z,1017.90
2022-10-22T04:39:45.275Z,1017.86
2022-10-22T04:40:46.128Z,1017.83
2022-10-22T04:41:47.009Z,1017.81
2022-10-22T04:42:47.912Z,1017.80
2022-10-22T04:43:48.778Z,1017.74
2022-10-22T04:44:49.744Z,1017.73
2022-10-22T04:45:51.151Z,1017.72
2022-10-22T04:46:51.511Z,1017.74
2022-10-22T04:47:52.397Z,1017.73
2022-10-22T04:48:53.281Z,1017.74
2022-10-22T04:49:54.192Z,1017.76
2022-10-22T04:50:55.069Z,1017.78
2022-10-22T04:51:55.970Z,1017.76
2022-10-22T04:52:56.823Z,1017.75
2022-10-22T04:53:57.716Z,1017.77
2022-10-22T04:54:58.593Z,1017.74
2022-10-22T04:55:59.484Z,1017.75
2022-10-22T04:57:00.368Z,1017.74
2022-10-22T04:58:01.247Z,1017.75
2022-10-22T04:59:02.121Z,1017.76
2022-10-22T05:00:03.035Z,1017.77
2022-10-22T05:01:03.923Z,1017.79
2022-10-22T05:02:04.787Z,1017.79
2022-10-22T05:03:05.671Z,1017.81
2022-10-22T05:04:06.555Z,1017.84
2022-10-22T05:05:07.451Z,1017.86
2022-10-22T05:06:08.385Z,1017.85
2022-10-22T05:07:09.264Z,1017.83
2022-10-22T05:08:10.123Z,1017.84
2022-10-22T05:09:11.091Z,1017.84
2022-10-22T05:10:11.938Z,1017.81
2022-10-22T05:11:12.810Z,1017.79
2022-10-22T05:12:13.693Z,1017.81
2022-10-22T05:13:14.577Z,1017.82
2022-10-22T05:14:15.459Z,1017.82
2022-10-22T05:15:16.368Z,1017.83
2022-10-22T05:16:17.241Z,1017.81
2022-10-22T05:17:18.124Z,1017.81
2022-10-22T05:18:21.828Z,1017.81
2022-10-22T05:19:19.992Z,1017.75
2022-10-22T05:20:20.883Z,1017.75
2022-10-22T05:21:21.780Z,1017.75
2022-10-22T05:22:22.671Z,1017.77
2022-10-22T05:23:23.533Z,1017.77
2022-10-22T05:24:24.415Z,1017.75
2022-10-22T05:25:25.298Z,1017.76
2022-10-22T05:26:26.182Z,1017.78
2022-10-22T05:27:27.076Z,1017.75
2022-10-22T05:28:27.945Z,1017.73
2022-10-22T05:29:28.821Z,1017.70
2022-10-22T05:30:29.710Z,1017.68
2022-10-22T05:31:30.593Z,1017.68
2022-10-22T05:32:31.477Z,1017.64
2022-10-22T05:33:32.316Z,1017.65
2022-10-22T05:34:33.197Z,1017.63
2022-10-22T05:35:34.071Z,1017.67
2022-10-22T05:36:34.955Z,1017.70
2022-10-22T05:37:35.847Z,1017.75
2022-10-22T05:38:36.663Z,1017.76
2022-10-22T05:39:37.494Z,1017.79
2022-10-22T05:40:38.323Z,1017.77
2022-10-22T05:41:39.143Z,1017.76
2022-10-22T05:42:40.306Z,1017.74
2022-10-22T05:43:40.738Z,1017.75
2022-10-22T05:44:41.569Z,1017.70
2022-10-22T05:45:42.403Z,1017.67
2022-10-22T05:46:43.322Z,1017.72
2022-10-22T05:47:44.244Z,1017.71
2022-10-22T05:48:45.084Z,1017.73
2022-10-22T05:49:45.905Z,1017.77
2022-10-22T05:50:46.737Z,1017.84
2022-10-22T05:51:47.566Z,1017.85
2022-10-22T05:52:48.410Z,1017.87
2022-10-22T05:53:49.209Z,1017.88
2022-10-22T05:54:50.038Z,1017.88
2022-10-22T05:55:50.868Z,1017.86
2022-10-22T05:56:51.697Z,1017.88
2022-10-22T05:57:52.541Z,1017.89
2022-10-22T05:58:53.404Z,1017.94
2022-10-22T05:59:54.186Z,1017.92
2022-10-22T06:00:55.037Z,1017.92
2022-10-22T06:01:55.904Z,1017.94
2022-10-22T06:02:56.683Z,1017.92
2022-10-22T06:03:57.522Z,1017.93
2022-10-22T06:04:58.344Z,1017.94
2022-10-22T06:05:59.175Z,1017.93
2022-10-22T06:07:00.001Z,1017.91
2022-10-22T06:08:00.839Z,1017.89
2022-10-22T06:09:01.725Z,1017.88
2022-10-22T06:10:02.521Z,1017.90
2022-10-22T06:11:03.350Z,1017.95
2022-10-22T06:12:04.173Z,1017.97
2022-10-22T06:13:05.126Z,1018.02
2022-10-22T06:14:05.880Z,1018.08
2022-10-22T06:15:06.708Z,1018.10
2022-10-22T06:16:07.553Z,1018.14
2022-10-22T06:17:08.372Z,1018.16
2022-10-22T06:18:09.192Z,1018.16
2022-10-22T06:19:10.020Z,1018.13
2022-10-22T06:20:10.850Z,1018.12
2022-10-22T06:21:11.678Z,1018.11
2022-10-22T06:22:12.513Z,1018.16
2022-10-22T06:23:13.348Z,1018.18
2022-10-22T06:24:14.157Z,1018.18
2022-10-22T06:25:14.990Z,1018.19
2022-10-22T06:26:15.825Z,1018.24
2022-10-22T06:27:16.655Z,1018.29
2022-10-22T06:28:17.520Z,1018.37
2022-10-22T06:29:18.303Z,1018.44
2022-10-22T06:30:19.144Z,1018.44
2022-10-22T06:31:19.972Z,1018.46
2022-10-22T06:32:20.792Z,1018.51
2022-10-22T06:33:21.622Z,1018.52
2022-10-22T06:34:22.478Z,1018.52
2022-10-22T06:35:23.293Z,1018.53
2022-10-22T06:36:24.120Z,1018.55
2022-10-22T06:37:24.949Z,1018.56
2022-10-22T06:38:25.787Z,1018.57
2022-10-22T06:39:26.595Z,1018.63
2022-10-22T06:40:27.451Z,1018.69
2022-10-22T06:41:28.967Z,1018.70
2022-10-22T06:42:28.988Z,1018.70
2022-10-22T06:43:29.816Z,1018.72
2022-10-22T06:44:30.636Z,1018.73
2022-10-22T06:45:31.475Z,1018.76
2022-10-22T06:46:32.306Z,1018.78
2022-10-22T06:47:33.128Z,1018.80
2022-10-22T06:48:33.954Z,1018.77
2022-10-22T06:49:34.782Z,1018.79
2022-10-22T06:50:35.615Z,1018.83
2022-10-22T06:51:36.447Z,1018.85
2022-10-22T06:52:37.269Z,1018.87
2022-10-22T06:53:38.112Z,1018.90
2022-10-22T06:54:38.921Z,1018.90
2022-10-22T06:55:39.811Z,1018.92
2022-10-22T06:56:40.645Z,1018.91
2022-10-22T06:57:41.828Z,1018.90
2022-10-22T06:58:42.286Z,1018.89
2022-10-22T06:59:43.114Z,1018.90
2022-10-22T07:00:43.948Z,1018.91
2022-10-22T07:01:44.865Z,1018.92
2022-10-22T07:02:45.686Z,1018.96
2022-10-22T07:03:46.520Z,1018.97
2022-10-22T07:04:47.343Z,1018.99
2022-10-22T07:05:48.190Z,1019.00
2022-10-22T07:06:49.011Z,1019.02
2022-10-22T07:07:49.847Z,1019.06
2022-10-22T07:08:50.869Z,1019.08
2022-10-22T07:09:51.537Z,1019.08
2022-10-22T07:10:51.890Z,1019.09
2022-10-22T07:11:52.712Z,1019.13
2022-10-22T07:12:53.534Z,1019.19
2022-10-22T07:13:54.364Z,1019.19
2022-10-22T07:14:55.194Z,1019.21
2022-10-22T07:15:56.027Z,1019.18
2022-10-22T07:16:56.861Z,1019.19
2022-10-22T07:17:57.701Z,1019.20
2022-10-22T07:18:58.519Z,1019.22
2022-10-22T07:19:59.523Z,1019.23
2022-10-22T07:21:00.307Z,1019.24
2022-10-22T07:22:01.119Z,1019.25
2022-10-22T07:23:01.936Z,1019.28
2022-10-22T07:24:02.790Z,1019.30
2022-10-22T07:25:06.605Z,1019.31
2022-10-22T07:26:04.189Z,1019.33
2022-10-22T07:27:07.012Z,1019.35
2022-10-22T07:28:05.738Z,1019.38
2022-10-22T07:29:06.551Z,1019.40
2022-10-22T07:30:07.384Z,1019.41
2022-10-22T07:31:08.234Z,1019.42
2022-10-22T07:32:09.045Z,1019.47
2022-10-22T07:33:09.870Z,1019.48
2022-10-22T07:34:10.734Z,1019.57
2022-10-22T07:35:11.568Z,1019.57
2022-10-22T07:36:12.402Z,1019.60
2022-10-22T07:37:13.243Z,1019.63
2022-10-22T07:38:14.071Z,1019.63
2022-10-22T07:39:14.912Z,1019.63
2022-10-22T07:40:15.732Z,1019.61
2022-10-22T07:41:16.562Z,1019.62
2022-10-22T07:42:17.435Z,1019.64
2022-10-22T07:43:18.257Z,1019.67
2022-10-22T07:44:19.068Z,1019.70
2022-10-22T07:45:20.048Z,1019.71
2022-10-22T07:46:20.830Z,1019.73
2022-10-22T07:47:21.656Z,1019.76
2022-10-22T07:48:22.486Z,1019.77
2022-10-22T07:49:23.304Z,1019.76
2022-10-22T07:50:24.155Z,1019.77
2022-10-22T07:51:24.981Z,1019.74
2022-10-22T07:52:25.812Z,1019.77
2022-10-22T07:53:26.629Z,1019.77
2022-10-22T07:54:27.480Z,1019.81
2022-10-22T07:55:28.287Z,1019.83
2022-10-22T07:56:29.126Z,1019.84
2022-10-22T07:57:29.955Z,1019.86
2022-10-22T07:58:30.786Z,1019.88
2022-10-22T07:59:31.625Z,1019.90
2022-10-22T08:00:32.442Z,1019.90
2022-10-22T08:01:33.347Z,1019.91
2022-10-22T08:02:34.141Z,1019.92
2022-10-22T08:03:34.970Z,1019.93
2022-10-22T08:04:35.798Z,1019.95
2022-10-22T08:05:36.645Z,1019.94
2022-10-22T08:06:37.464Z,1019.95
2022-10-22T08:07:38.291Z,1019.98
2022-10-22T08:08:39.223Z,1019.99
2022-10-22T08:09:40.040Z,1019.99
2022-10-22T08:10:40.864Z,1020.02
2022-10-22T08:11:41.693Z,1020.04
2022-10-22T08:12:42.968Z,1020.07
2022-10-22T08:13:45.579Z,1020.07
2022-10-22T08:14:44.128Z,1020.06
2022-10-22T08:16:45.727Z,1020.02
2022-10-22T08:17:46.565Z,1020.03
2022-10-22T08:18:47.184Z,1020.04
2022-10-22T08:19:48.006Z,1020.05
2022-10-22T08:20:48.841Z,1020.07
2022-10-22T08:21:49.670Z,1020.06
2022-10-22T08:22:50.500Z,1020.08
2022-10-22T08:23:51.319Z,1020.09
2022-10-22T08:24:52.178Z,1020.09
2022-10-22T08:25:53.011Z,1020.09
2022-10-22T08:26:53.828Z,1020.09
2022-10-22T08:27:54.724Z,1020.08
2022-10-22T08:28:55.504Z,1020.10
2022-10-22T08:29:56.387Z,1020.09
2022-10-22T08:30:57.172Z,1020.07
2022-10-22T08:31:57.993Z,1020.08
2022-10-22T08:32:58.901Z,1020.08
2022-10-22T08:33:59.662Z,1020.11
2022-10-22T08:35:00.519Z,1020.11
2022-10-22T08:36:01.353Z,1020.10
2022-10-22T08:37:02.166Z,1020.08
2022-10-22T08:38:02.983Z,1020.09
2022-10-22T08:39:03.815Z,1020.12
2022-10-22T08:40:04.770Z,1020.12
2022-10-22T08:41:05.542Z,1020.12
2022-10-22T08:42:06.361Z,1020.10
2022-10-22T08:43:07.187Z,1020.10
2022-10-22T08:44:08.012Z,1020.09
2022-10-22T08:45:08.834Z,1020.05
2022-10-22T08:46:09.679Z,1020.04
2022-10-22T08:47:10.522Z,1020.04
2022-10-22T08:48:11.355Z,1020.03
2022-10-22T08:49:12.171Z,1020.03
2022-10-22T08:50:12.990Z,1020.03
2022-10-22T08:51:13.822Z,1020.09
2022-10-22T08:52:14.643Z,1020.11
2022-10-22T08:53:15.479Z,1020.15
2022-10-22T08:54:16.303Z,1020.16
2022-10-22T08:55:17.163Z,1020.15
2022-10-22T08:56:17.980Z,1020.15
2022-10-22T08:57:18.855Z,1020.13
2022-10-22T08:58:19.639Z,1020.14
2022-10-22T08:59:20.459Z,1020.18
2022-10-22T09:00:21.301Z,1020.21
2022-10-22T09:01:22.133Z,1020.23
2022-10-22T09:02:22.960Z,1020.22
2022-10-22T09:03:23.796Z,1020.21
2022-10-22T09:04:24.610Z,1020.25
2022-10-22T09:05:25.429Z,1020.26
2022-10-22T09:06:26.268Z,1020.26
2022-10-22T09:07:27.089Z,1020.26
2022-10-22T09:08:27.930Z,1020.28
2022-10-22T09:09:28.750Z,1020.27
2022-10-22T09:10:29.594Z,1020.31
2022-10-22T09:11:30.411Z,1020.33
2022-10-22T09:12:31.239Z,1020.36
2022-10-22T09:13:32.058Z,1020.38
2022-10-22T09:14:32.902Z,1020.40
2022-10-22T09:15:33.717Z,1020.40
2022-10-22T09:16:34.556Z,1020.39
2022-10-22T09:17:35.390Z,1020.40
2022-10-22T09:18:36.219Z,1020.40
2022-10-22T09:19:37.037Z,1020.41
2022-10-22T09:20:37.863Z,1020.44
2022-10-22T09:21:38.892Z,1020.46
2022-10-22T09:22:39.699Z,1020.46
2022-10-22T09:23:40.517Z,1020.46
2022-10-22T09:24:41.372Z,1020.47
2022-10-22T09:25:42.213Z,1020.48
2022-10-22T09:26:43.023Z,1020.44
2022-10-22T09:27:44.182Z,1020.39
2022-10-22T09:28:44.565Z,1020.35
2022-10-22T09:29:45.380Z,1020.32
2022-10-22T09:30:46.347Z,1020.28
2022-10-22T09:31:47.154Z,1020.27
2022-10-22T09:32:47.976Z,1020.27
2022-10-22T09:33:48.797Z,1020.29
2022-10-22T09:34:49.626Z,1020.34
2022-10-22T09:35:50.455Z,1020.40
2022-10-22T09:36:51.285Z,1020.43
2022-10-22T09:37:52.143Z,1020.45
2022-10-22T09:38:52.935Z,1020.43
2022-10-22T09:39:53.761Z,1020.48
2022-10-22T09:40:54.620Z,1020.46
2022-10-22T09:41:55.428Z,1020.46
2022-10-22T09:42:56.255Z,1020.45
2022-10-22T09:43:57.078Z,1020.45
2022-10-22T09:44:57.903Z,1020.47
2022-10-22T09:45:58.758Z,1020.44
2022-10-22T09:46:59.581Z,1020.44
2022-10-22T09:48:02.298Z,1020.44
2022-10-22T09:49:01.326Z,1020.42
2022-10-22T09:50:02.149Z,1020.43
2022-10-22T09:51:03.059Z,1020.40
2022-10-22T09:52:03.847Z,1020.41
2022-10-22T09:53:04.676Z,1020.39
2022-10-22T09:54:05.515Z,1020.37
2022-10-22T09:55:06.339Z,1020.36
2022-10-22T09:56:07.202Z,1020.36
2022-10-22T09:57:08.008Z,1020.37
2022-10-22T09:58:08.842Z,1020.34
2022-10-22T09:59:09.439Z,1020.33
2022-10-22T10:00:10.271Z,1020.34
2022-10-22T10:01:11.126Z,1020.38
2022-10-22T10:02:20.261Z,1020.40
2022-10-22T10:03:13.709Z,1020.40
2022-10-22T10:04:13.504Z,1020.40
2022-10-22T10:05:14.315Z,1020.35
2022-10-22T10:06:15.155Z,1020.35
2022-10-22T10:07:15.982Z,1020.33
2022-10-22T10:08:16.822Z,1020.33
2022-10-22T10:09:17.755Z,1020.33
2022-10-22T10:10:18.552Z,1020.36
2022-10-22T10:11:19.410Z,1020.39
2022-10-22T10:12:20.211Z,1020.39
2022-10-22T10:13:21.062Z,1020.42
2022-10-22T10:14:21.882Z,1020.44
2022-10-22T10:15:22.711Z,1020.45
2022-10-22T10:16:23.548Z,1020.44
2022-10-22T10:17:24.387Z,1020.42
2022-10-22T10:18:25.218Z,1020.42
2022-10-22T10:19:26.046Z,1020.42
2022-10-22T10:20:26.878Z,1020.41
2022-10-22T10:21:27.744Z,1020.43
2022-10-22T10:22:28.549Z,1020.43
2022-10-22T10:23:29.379Z,1020.45
2022-10-22T10:24:30.211Z,1020.45
2022-10-22T10:25:31.039Z,1020.48
2022-10-22T10:26:31.898Z,1020.48
2022-10-22T10:27:32.710Z,1020.49
2022-10-22T10:28:33.538Z,1020.49
2022-10-22T10:29:34.410Z,1020.50
2022-10-22T10:30:35.215Z,1020.51
2022-10-22T10:31:36.047Z,1020.52
2022-10-22T10:32:36.867Z,1020.51
2022-10-22T10:33:37.713Z,1020.52
2022-10-22T10:34:38.595Z,1020.47
2022-10-22T10:35:39.419Z,1020.47
2022-10-22T10:36:40.261Z,1020.44
2022-10-22T10:37:41.089Z,1020.41
2022-10-22T10:38:41.927Z,1020.44
2022-10-22T10:39:42.769Z,1020.46
2022-10-22T10:40:43.588Z,1020.46
2022-10-22T10:41:44.438Z,1020.47
2022-10-22T10:42:45.244Z,1020.49
2022-10-22T10:43:46.071Z,1020.50
2022-10-22T10:44:46.897Z,1020.50
2022-10-22T10:45:49.528Z,1020.52
2022-10-22T10:46:48.505Z,1020.50
2022-10-22T10:47:49.350Z,1020.51
2022-10-22T10:48:50.169Z,1020.50
2022-10-22T10:49:50.999Z,1020.51
2022-10-22T10:50:51.835Z,1020.50
2022-10-22T10:51:52.667Z,1020.48
2022-10-22T10:52:53.493Z,1020.47
2022-10-22T10:53:54.324Z,1020.45
2022-10-22T10:54:55.151Z,1020.45
2022-10-22T10:55:55.991Z,1020.43
2022-10-22T10:56:56.827Z,1020.43
2022-10-22T10:57:57.638Z,1020.45
2022-10-22T10:58:58.477Z,1020.43
2022-10-22T10:59:59.295Z,1020.41
2022-10-22T11:01:00.245Z,1020.41
2022-10-22T11:02:01.116Z,1020.41
2022-10-22T11:03:01.911Z,1020.42
2022-10-22T11:04:02.725Z,1020.39
2022-10-22T11:05:03.557Z,1020.38
2022-10-22T11:06:04.409Z,1020.36
2022-10-22T11:07:11.358Z,1020.37
2022-10-22T11:08:06.937Z,1020.34
2022-10-22T11:09:06.830Z,1020.31
2022-10-22T11:10:07.620Z,1020.28
2022-10-22T11:11:08.503Z,1020.29
2022-10-22T11:12:09.300Z,1020.29
2022-10-22T11:13:10.111Z,1020.31
2022-10-22T11:14:10.966Z,1020.32
2022-10-22T11:15:11.775Z,1020.33
2022-10-22T11:16:12.615Z,1020.35
2022-10-22T11:17:13.444Z,1020.34
2022-10-22T11:18:14.277Z,1020.34
2022-10-22T11:19:22.715Z,1020.32
2022-10-22T11:20:16.822Z,1020.33
2022-10-22T11:21:16.658Z,1020.34
2022-10-22T11:22:17.500Z,1020.36
2022-10-22T11:23:20.653Z,1020.36
2022-10-22T11:24:19.248Z,1020.36
2022-10-22T11:25:20.071Z,1020.38
2022-10-22T11:26:21.003Z,1020.38
2022-10-22T11:27:21.860Z,1020.36
2022-10-22T11:28:22.708Z,1020.39
2022-10-22T11:29:23.519Z,1020.38
2022-10-22T11:30:24.349Z,1020.38
2022-10-22T11:31:25.197Z,1020.39
2022-10-22T11:32:26.003Z,1020.40
2022-10-22T11:33:26.823Z,1020.37
2022-10-22T11:34:33.596Z,1020.37
2022-10-22T11:35:29.370Z,1020.36
2022-10-22T11:36:29.258Z,1020.35
2022-10-22T11:37:30.037Z,1020.39
2022-10-22T11:38:32.837Z,1020.38
2022-10-22T11:39:31.718Z,1020.39
2022-10-22T11:40:32.544Z,1020.39
2022-10-22T11:41:33.392Z,1020.38
2022-10-22T11:42:34.236Z,1020.40
2022-10-22T11:43:35.040Z,1020.37
2022-10-22T11:44:35.866Z,1020.34
2022-10-22T11:45:36.709Z,1020.35
2022-10-22T11:46:37.526Z,1020.35
2022-10-22T11:47:38.704Z,1020.34
2022-10-22T11:48:39.055Z,1020.32
2022-10-22T11:49:39.907Z,1020.34
2022-10-22T11:50:40.750Z,1020.33
2022-10-22T11:51:41.586Z,1020.35
2022-10-22T11:52:42.409Z,1020.36
2022-10-22T11:53:43.240Z,1020.35
2022-10-22T11:54:44.133Z,1020.38
2022-10-22T11:55:44.926Z,1020.39
2022-10-22T11:56:45.773Z,1020.39
2022-10-22T11:57:46.616Z,1020.39
2022-10-22T11:58:50.780Z,1020.37
2022-10-22T11:59:49.154Z,1020.35
2022-10-22T12:00:49.008Z,1020.36
2022-10-22T12:01:49.825Z,1020.35
2022-10-22T12:02:50.651Z,1020.34
2022-10-22T12:03:51.495Z,1020.30
2022-10-22T12:04:52.375Z,1020.30
2022-10-22T12:05:53.178Z,1020.30
2022-10-22T12:06:54.013Z,1020.28
2022-10-22T12:07:54.847Z,1020.28
2022-10-22T12:08:55.836Z,1020.27
2022-10-22T12:09:56.608Z,1020.25
2022-10-22T12:10:57.436Z,1020.23
2022-10-22T12:11:58.255Z,1020.21
2022-10-22T12:12:59.102Z,1020.22
2022-10-22T12:13:59.917Z,1020.24
2022-10-22T12:15:00.740Z,1020.27
2022-10-22T12:16:01.586Z,1020.28
2022-10-22T12:17:02.407Z,1020.30
2022-10-22T12:18:03.334Z,1020.30